createdAt,value
2019-03-02T00:01:53.567Z,1926.40
2019-03-02T00:06:57.400Z,1999.90
2019-03-02T00:12:01.034Z,1976.03
2019-03-02T00:17:04.318Z,1999.90
2019-03-02T00:22:08.166Z,1999.90
2019-03-02T00:27:11.478Z,1999.90
2019-03-02T00:32:14.858Z,1999.90
2019-03-02T00:37:18.230Z,1548.90
2019-03-02T00:42:22.338Z,1999.90
2019-03-02T00:47:26.427Z,1528.17
2019-03-02T00:52:30.222Z,1999.90
2019-03-02T00:57:34.056Z,1999.90
2019-03-02T01:02:39.613Z,1999.90
2019-03-02T01:07:42.510Z,1999.90
2019-03-02T01:12:46.311Z,1999.90
2019-03-02T01:17:50.175Z,1999.90
2019-03-02T01:22:53.450Z,1999.90
2019-03-02T01:27:57.196Z,1999.90
2019-03-02T01:33:00.874Z,1999.90
2019-03-02T01:38:04.702Z,1999.90
2019-03-02T01:43:08.013Z,1999.90
2019-03-02T01:48:11.746Z,1574.40
2019-03-02T01:53:15.585Z,1999.90
2019-03-02T01:58:19.425Z,1999.90
2019-03-02T02:03:22.830Z,1999.90
2019-03-02T02:08:29.766Z,1999.90
2019-03-02T02:13:32.475Z,1999.90
2019-03-02T02:18:36.623Z,1999.90
2019-03-02T02:23:40.731Z,1999.90
2019-03-02T02:28:44.505Z,1999.90
2019-03-02T02:33:48.231Z,1999.90
2019-03-02T02:38:54.524Z,1999.90
2019-03-02T02:43:59.063Z,1999.90
2019-03-02T02:49:05.311Z,1999.90
2019-03-02T02:54:07.394Z,1999.90
2019-03-02T02:59:10.815Z,1999.90
2019-03-02T03:04:14.095Z,887.83
2019-03-02T03:09:29.499Z,1999.90
2019-03-02T03:14:33.230Z,1999.90
2019-03-02T03:19:36.874Z,1999.90
2019-03-02T03:24:41.758Z,1999.90
2019-03-02T03:29:49.430Z,1999.90
2019-03-02T03:34:50.736Z,1999.90
2019-03-02T03:39:54.162Z,1999.90
2019-03-02T03:44:59.764Z,1999.90
2019-03-02T03:50:03.189Z,1999.90
2019-03-02T03:55:06.577Z,1999.90
2019-03-02T04:00:12.418Z,1999.90
2019-03-02T04:05:16.151Z,1999.90
2019-03-02T04:10:25.769Z,1999.90
2019-03-02T04:15:25.054Z,1999.90
2019-03-02T04:20:32.981Z,1999.90
2019-03-02T04:25:36.257Z,1999.90
2019-03-02T04:30:39.548Z,1999.90
2019-03-02T04:35:42.838Z,1999.90
2019-03-02T04:40:46.197Z,1999.90
2019-03-02T04:45:49.878Z,1999.90
2019-03-02T04:50:53.566Z,1999.90
2019-03-02T04:55:56.870Z,1999.90
2019-03-02T05:01:03.835Z,1999.90
2019-03-02T05:06:06.033Z,1999.90
2019-03-02T05:11:09.842Z,1999.90
2019-03-02T05:16:13.133Z,1999.90
2019-03-02T05:21:16.410Z,1999.90
2019-03-02T05:26:19.698Z,1999.90
2019-03-02T05:31:22.999Z,1999.90
2019-03-02T05:36:27.968Z,1999.90
2019-03-02T05:41:31.878Z,1999.90
2019-03-02T05:46:35.577Z,1999.90
2019-03-02T05:51:42.785Z,852.43
2019-03-02T05:56:44.413Z,1999.90
2019-03-02T06:01:48.114Z,1999.90
2019-03-02T06:06:54.192Z,1999.90
2019-03-02T06:11:57.338Z,1999.90
2019-03-02T06:17:00.662Z,1999.90
2019-03-02T06:22:05.698Z,1999.90
2019-03-02T06:27:10.854Z,1999.90
2019-03-02T06:32:14.502Z,1999.90
2019-03-02T06:37:19.958Z,677.23
2019-03-02T06:42:23.339Z,1999.90
2019-03-02T06:47:30.013Z,1999.90
2019-03-02T06:52:32.048Z,1999.90
2019-03-02T06:57:35.337Z,1999.90
2019-03-02T07:02:39.042Z,1999.90
2019-03-02T07:07:43.158Z,1999.90
2019-03-02T07:12:47.006Z,1999.90
2019-03-02T07:18:06.176Z,1999.90
2019-03-02T07:23:08.077Z,954.80
2019-03-02T07:28:11.927Z,1853.97
2019-03-02T07:33:16.725Z,1497.43
2019-03-02T07:38:20.585Z,1999.90
2019-03-02T07:43:24.980Z,1885.70
2019-03-02T07:48:28.278Z,1999.90
2019-03-02T07:53:32.074Z,1912.07
2019-03-02T07:58:36.269Z,1974.60
2019-03-02T08:03:39.998Z,1999.90
2019-03-02T08:08:45.907Z,1999.90
2019-03-02T08:13:49.375Z,1999.90
2019-03-02T08:18:53.823Z,1999.90
2019-03-02T08:23:57.518Z,1999.90
2019-03-02T08:29:00.804Z,1999.90
2019-03-02T08:34:05.955Z,1999.90
2019-03-02T08:39:10.643Z,1999.90
2019-03-02T08:44:15.570Z,1999.90
2019-03-02T08:49:20.004Z,1999.90
2019-03-02T08:54:23.735Z,1999.90
2019-03-02T08:59:27.676Z,1999.90
2019-03-02T09:04:33.074Z,1999.90
2019-03-02T09:09:36.893Z,1999.90
2019-03-02T09:14:40.628Z,1999.90
2019-03-02T09:19:43.954Z,1999.90
2019-03-02T09:24:49.140Z,1999.90
2019-03-02T09:29:55.842Z,1999.90
2019-03-02T09:34:57.828Z,1997.40
2019-03-02T09:40:02.119Z,1899.23
2019-03-02T09:45:11.291Z,1999.90
2019-03-02T09:50:14.529Z,1999.90
2019-03-02T09:55:19.892Z,1999.90
2019-03-02T10:00:25.594Z,1936.33
2019-03-02T10:05:29.090Z,1999.90
2019-03-02T10:10:33.300Z,1999.90
2019-03-02T10:15:37.251Z,1999.90
2019-03-02T10:20:42.688Z,1964.43
2019-03-02T10:25:46.380Z,1830.13
2019-03-02T10:30:50.364Z,1999.90
2019-03-02T10:35:54.936Z,1999.90
2019-03-02T10:40:58.926Z,1999.90
2019-03-02T10:46:02.436Z,1779.37
2019-03-02T10:51:06.248Z,1853.97
2019-03-02T10:56:09.657Z,1530.27
2019-03-02T11:01:13.063Z,1856.30
2019-03-02T11:06:33.089Z,1686.37
2019-03-02T11:11:54.366Z,1703.07
2019-03-02T11:17:19.817Z,1604.93
2019-03-02T11:22:38.298Z,1033.10
2019-03-02T11:27:45.810Z,770.40
2019-03-02T11:33:17.402Z,1016.83
2019-03-02T11:38:37.200Z,1165.10
2019-03-02T11:44:05.815Z,1525.80
2019-03-02T11:49:30.913Z,1656.77
2019-03-02T11:55:04.331Z,1964.00
2019-03-02T12:00:22.478Z,1630.40
2019-03-02T12:05:48.431Z,1367.73
2019-03-02T12:11:07.081Z,1334.23
2019-03-02T12:16:22.020Z,1890.37
2019-03-02T12:21:37.247Z,804.67
2019-03-02T12:26:59.495Z,1092.27
2019-03-02T12:32:10.691Z,431.53
2019-03-02T12:37:37.318Z,881.33
2019-03-02T12:42:47.555Z,1016.07
2019-03-02T12:48:12.998Z,1608.73
2019-03-02T12:53:28.808Z,869.63
2019-03-02T12:58:55.335Z,1324.00
2019-03-02T13:04:14.930Z,478.63
2019-03-02T13:09:28.431Z,1220.17
2019-03-02T13:15:00.637Z,933.37
2019-03-02T13:20:23.943Z,758.27
2019-03-02T13:25:45.517Z,1114.13
2019-03-02T13:31:07.739Z,1735.53
2019-03-02T13:36:17.734Z,1233.17
2019-03-02T13:41:42.934Z,1606.50
2019-03-02T13:46:51.783Z,1999.90
2019-03-02T13:52:09.592Z,1979.77
2019-03-02T13:57:41.709Z,1999.90
2019-03-02T14:02:58.610Z,1999.90
2019-03-02T14:08:20.463Z,1999.90
2019-03-02T14:13:42.321Z,1420.17
2019-03-02T14:18:53.134Z,1361.07
2019-03-02T14:24:27.073Z,1222.90
2019-03-02T14:29:36.399Z,1504.97
2019-03-02T14:35:00.522Z,1860.57
2019-03-02T14:40:10.892Z,1999.90
2019-03-02T14:45:21.439Z,1882.87
2019-03-02T14:51:01.143Z,1512.53
2019-03-02T14:56:23.372Z,881.37
2019-03-02T15:01:59.522Z,1839.17
2019-03-02T15:07:31.956Z,1141.73
2019-03-02T15:13:04.316Z,1073.50
2019-03-02T15:18:29.148Z,1038.30
2019-03-02T15:23:53.635Z,1176.93
2019-03-02T15:29:13.694Z,1061.80
2019-03-02T15:34:35.414Z,1304.20
2019-03-02T15:40:04.343Z,972.23
2019-03-02T15:45:46.486Z,933.03
2019-03-02T15:51:11.716Z,1269.00
2019-03-02T15:56:41.659Z,1866.73
2019-03-02T16:02:04.115Z,960.77
2019-03-02T16:07:17.625Z,1159.57
2019-03-02T16:12:40.899Z,747.43
2019-03-02T16:18:03.338Z,473.10
2019-03-02T16:23:24.868Z,421.43
2019-03-02T16:28:54.181Z,722.90
2019-03-02T16:34:12.420Z,395.00
2019-03-02T16:39:34.594Z,126.87
2019-03-02T16:44:54.163Z,167.73
2019-03-02T16:50:12.853Z,191.20
2019-03-02T16:55:35.548Z,293.63
2019-03-02T17:00:55.011Z,490.23
2019-03-02T17:06:09.656Z,582.13
2019-03-02T17:11:26.427Z,614.93
2019-03-02T17:16:48.816Z,434.23
2019-03-02T17:22:12.408Z,646.97
2019-03-02T17:28:08.495Z,840.83
2019-03-02T17:33:12.248Z,788.73
2019-03-02T17:38:37.910Z,782.10
2019-03-02T17:43:56.235Z,673.87
2019-03-02T17:49:00.186Z,851.17
2019-03-02T17:54:23.867Z,906.53
2019-03-02T17:59:50.326Z,981.13
2019-03-02T18:05:22.066Z,1169.77
2019-03-02T18:10:39.033Z,860.73
2019-03-02T18:16:08.146Z,939.03
2019-03-02T18:21:12.031Z,1115.50
2019-03-02T18:26:16.472Z,1251.00
2019-03-02T18:31:21.650Z,1222.57
2019-03-02T18:36:25.637Z,1557.03
2019-03-02T18:41:29.015Z,1659.37
2019-03-02T18:46:33.302Z,1375.90
2019-03-02T18:51:54.713Z,1253.97
2019-03-02T18:56:58.023Z,1247.30
2019-03-02T19:02:05.435Z,1386.33
2019-03-02T19:07:06.671Z,1843.30
2019-03-02T19:12:10.252Z,1830.23
2019-03-02T19:17:14.711Z,1965.90
2019-03-02T19:22:19.191Z,1706.50
2019-03-02T19:27:22.766Z,1595.87
2019-03-02T19:32:26.482Z,1960.50
2019-03-02T19:37:30.180Z,1815.67
2019-03-02T19:42:33.638Z,1836.43
2019-03-02T19:47:37.570Z,1784.17
2019-03-02T19:52:41.351Z,1936.87
2019-03-02T19:57:44.691Z,1806.40
2019-03-02T20:02:48.718Z,1493.80
2019-03-02T20:07:52.982Z,1788.73
2019-03-02T20:12:56.993Z,1947.47
2019-03-02T20:18:00.887Z,1623.23
2019-03-02T20:23:04.502Z,1590.53
2019-03-02T20:28:08.035Z,1790.90
2019-03-02T20:33:11.940Z,1608.97
2019-03-02T20:38:15.931Z,1530.23
2019-03-02T20:43:19.550Z,1410.03
2019-03-02T20:48:23.321Z,1463.17
2019-03-02T20:53:27.383Z,1497.60
2019-03-02T20:58:30.692Z,1747.97
2019-03-02T21:03:34.412Z,1630.87
2019-03-02T21:08:38.207Z,1655.37
2019-03-02T21:13:41.822Z,1999.90
2019-03-02T21:18:45.210Z,1996.40
2019-03-02T21:23:48.564Z,1999.90
2019-03-02T21:28:52.400Z,1999.90
2019-03-02T21:33:56.468Z,1999.90
2019-03-02T21:38:59.903Z,1999.90
2019-03-02T21:44:03.254Z,1999.90
2019-03-02T21:49:06.642Z,1808.37
2019-03-02T21:54:10.303Z,1999.90
2019-03-02T21:59:13.740Z,1999.90
2019-03-02T22:04:17.175Z,1996.80
2019-03-02T22:09:20.550Z,1999.90
2019-03-02T22:14:23.904Z,1999.90
2019-03-02T22:19:27.549Z,1604.37
2019-03-02T22:24:31.019Z,1999.90
2019-03-02T22:29:34.896Z,1999.90
2019-03-02T22:34:39.027Z,1999.90
2019-03-02T22:39:43.048Z,1999.90
2019-03-02T22:44:47.347Z,1999.90
2019-03-02T22:49:50.667Z,1999.90
2019-03-02T22:54:54.159Z,1999.90
2019-03-02T23:00:19.838Z,1999.90
2019-03-02T23:05:23.631Z,1999.90
2019-03-02T23:10:27.824Z,1598.83
2019-03-02T23:15:31.549Z,1999.90
2019-03-02T23:20:35.526Z,1999.90
2019-03-02T23:25:39.711Z,1999.90
2019-03-02T23:30:43.003Z,1990.40
2019-03-02T23:35:46.366Z,1999.90
2019-03-02T23:40:49.978Z,1999.90
2019-03-02T23:45:53.301Z,1999.90
2019-03-02T23:50:56.638Z,1999.90
2019-03-02T23:56:01.638Z,1999.90
